createdAt,value
2024-04-07T00:00:00.489Z,10.9
2024-04-07T00:10:00.513Z,11
2024-04-07T00:20:00.477Z,11.2
2024-04-07T00:30:00.481Z,11
2024-04-07T00:50:00.267Z,10.7
2024-04-07T01:00:00.328Z,10.5
2024-04-07T01:10:00.281Z,10.3
2024-04-07T01:20:00.283Z,10.6
2024-04-07T01:30:00.330Z,10.6
2024-04-07T01:40:00.277Z,11
2024-04-07T01:50:00.273Z,11
2024-04-07T02:00:00.335Z,11
2024-04-07T02:10:00.267Z,11.2
2024-04-07T02:20:00.512Z,11.2
2024-04-07T02:30:00.317Z,11.2
2024-04-07T02:40:00.307Z,10.3
2024-04-07T02:50:00.285Z,10.4
2024-04-07T03:00:00.325Z,10.2
2024-04-07T03:10:00.270Z,10.3
2024-04-07T03:20:00.271Z,10.2
2024-04-07T03:30:00.324Z,10.3
2024-04-07T03:40:00.303Z,10
2024-04-07T03:50:00.294Z,10.1
2024-04-07T04:00:00.281Z,9.9
2024-04-07T04:10:00.280Z,9.8
2024-04-07T04:20:00.272Z,9.8
2024-04-07T04:30:00.269Z,9.8
2024-04-07T04:40:00.285Z,9.8
2024-04-07T04:50:00.270Z,9.8
2024-04-07T05:00:00.459Z,9.7
2024-04-07T05:10:00.320Z,9.5
2024-04-07T05:20:00.281Z,9.3
2024-04-07T05:30:00.278Z,9.3
2024-04-07T05:40:03.599Z,9.3
2024-04-07T05:50:00.282Z,9.3
2024-04-07T06:00:00.337Z,9.2
2024-04-07T06:10:00.311Z,9.4
2024-04-07T06:20:00.336Z,9.4
2024-04-07T06:30:00.282Z,9.3
2024-04-07T06:40:00.369Z,9.5
2024-04-07T06:50:00.285Z,9.8
2024-04-07T07:00:00.307Z,9.9
2024-04-07T07:10:00.323Z,10.1
2024-04-07T07:20:00.318Z,10.4
2024-04-07T07:30:00.311Z,10.5
2024-04-07T07:40:00.282Z,10.8
2024-04-07T07:50:00.434Z,10.5
2024-04-07T08:00:09.808Z,10.7
2024-04-07T08:10:00.355Z,10.6
2024-04-07T08:20:00.432Z,10.6
2024-04-07T08:30:00.366Z,11.1
2024-04-07T08:40:00.281Z,10.9
2024-04-07T08:50:00.376Z,10.7
2024-04-07T09:00:00.280Z,10.8
2024-04-07T09:10:00.277Z,10.7
2024-04-07T09:20:00.303Z,10.5
2024-04-07T09:30:00.263Z,10.3
2024-04-07T09:40:00.305Z,10.6
2024-04-07T09:50:00.277Z,9.9
2024-04-07T10:00:00.266Z,10
2024-04-07T10:10:00.276Z,10.1
2024-04-07T10:20:00.419Z,9.4
2024-04-07T10:30:00.317Z,8.2
2024-04-07T10:40:00.270Z,8.2
2024-04-07T10:50:00.329Z,7.8
2024-04-07T11:00:00.286Z,8.5
2024-04-07T11:10:00.270Z,8.5
2024-04-07T11:20:00.330Z,9
2024-04-07T11:30:00.337Z,8.4
2024-04-07T11:40:00.266Z,7.7
2024-04-07T11:50:00.340Z,7.5
2024-04-07T12:00:00.351Z,7.8
2024-04-07T12:10:00.308Z,7.8
2024-04-07T12:20:00.276Z,8.5
2024-04-07T12:30:00.291Z,7.6
2024-04-07T12:40:00.292Z,8.3
2024-04-07T12:50:00.286Z,8.3
2024-04-07T13:00:00.277Z,7.1
2024-04-07T13:10:00.311Z,7
2024-04-07T13:20:00.358Z,7.7
2024-04-07T13:30:00.286Z,7
2024-04-07T13:40:00.322Z,7.5
2024-04-07T13:50:00.319Z,7.4
2024-04-07T14:00:00.276Z,7.9
2024-04-07T14:10:00.284Z,7
2024-04-07T14:20:00.336Z,6.6
2024-04-07T14:30:00.302Z,7.5
2024-04-07T14:40:00.284Z,7.9
2024-04-07T14:50:00.265Z,7.5
2024-04-07T15:00:00.352Z,6.9
2024-04-07T15:10:00.269Z,6.7
2024-04-07T15:20:00.291Z,6.7
2024-04-07T15:30:00.309Z,7.2
2024-04-07T15:40:00.291Z,6.9
2024-04-07T15:50:00.300Z,7.5
2024-04-07T16:00:00.307Z,7.9
2024-04-07T16:10:00.311Z,8
2024-04-07T16:20:00.262Z,8
2024-04-07T16:30:00.308Z,8.2
2024-04-07T16:40:00.287Z,7.4
2024-04-07T16:50:00.314Z,8
2024-04-07T17:00:00.366Z,8.2
2024-04-07T17:10:00.300Z,8.3
2024-04-07T17:20:00.277Z,8.4
2024-04-07T17:30:00.294Z,9.2
2024-04-07T17:40:00.302Z,9
2024-04-07T17:50:00.298Z,8.8
2024-04-07T18:00:00.284Z,9.4
2024-04-07T18:10:00.267Z,9.2
2024-04-07T18:20:00.304Z,9.7
2024-04-07T18:30:00.338Z,10.5
2024-04-07T18:40:00.299Z,10.3
2024-04-07T18:50:00.298Z,9.9
2024-04-07T19:00:02.059Z,10.1
2024-04-07T19:10:00.290Z,10
2024-04-07T19:20:00.270Z,10
2024-04-07T19:30:00.281Z,9.9
2024-04-07T19:40:00.319Z,9.8
2024-04-07T19:50:00.291Z,10.2
2024-04-07T20:00:00.473Z,10.8
2024-04-07T20:10:00.287Z,10.7
2024-04-07T20:20:00.265Z,11
2024-04-07T20:30:00.271Z,11.4
2024-04-07T20:40:00.284Z,11.3
2024-04-07T20:50:00.308Z,11.6
2024-04-07T21:00:00.267Z,11.3
2024-04-07T21:10:00.287Z,11.5
2024-04-07T21:20:00.277Z,11.6
2024-04-07T21:30:00.276Z,11.6
2024-04-07T21:40:00.283Z,11.7
2024-04-07T21:50:00.273Z,11.8
2024-04-07T22:00:00.286Z,11.7
2024-04-07T22:10:00.295Z,11.8
2024-04-07T22:20:00.275Z,11.9
2024-04-07T22:30:00.308Z,12
2024-04-07T22:40:00.334Z,12
2024-04-07T22:50:00.314Z,12
2024-04-07T23:00:00.302Z,11.9
2024-04-07T23:10:00.316Z,12.1
2024-04-07T23:20:00.310Z,12.2
2024-04-07T23:30:00.317Z,12
2024-04-07T23:40:00.283Z,12.1
2024-04-07T23:50:00.277Z,12.1
